Time;durP1;ratioP1;P1;durP2;ratioP2;P2;SDS_P1;SDS_P2;PMS_P1;PMS_P2;Temp;Humidity;BMP_temperature;BMP_pressure;BME280_temperature;BME280_humidity;BME280_pressure;Samples;Min_cycle;Max_cycle;Signal;HPM_P1;HPM_P2
2024/01/17 00:00:19;;;;;;;17.77;7.83;;;-2.40;99.90;;;;;;2621079;46;20120;31
2024/01/17 00:02:52;;;;;;;19.67;7.72;;;-2.50;99.90;;;;;;2602764;54;22363;31
2024/01/17 00:05:27;;;;;;;13.17;6.80;;;-2.50;99.90;;;;;;2602647;54;20030;31
2024/01/17 00:08:05;;;;;;;17.95;9.05;;;-2.50;99.90;;;;;;2621237;46;20036;31
2024/01/17 00:10:40;;;;;;;20.00;8.35;;;-2.50;99.90;;;;;;2602679;54;20930;31
2024/01/17 00:13:15;;;;;;;54.80;15.50;;;-2.60;99.90;;;;;;2602689;54;20038;31
2024/01/17 00:15:50;;;;;;;42.97;15.15;;;-2.60;99.90;;;;;;2602741;54;20030;31
2024/01/17 00:18:23;;;;;;;36.30;12.50;;;-2.60;99.90;;;;;;2621027;47;22307;31
2024/01/17 00:20:58;;;;;;;32.23;12.83;;;-2.70;99.90;;;;;;2602262;54;20919;31
2024/01/17 00:23:36;;;;;;;26.48;12.63;;;-2.70;99.90;;;;;;2621351;47;21194;31
2024/01/17 00:26:11;;;;;;;27.10;10.88;;;-2.80;99.90;;;;;;2602746;54;20755;31
2024/01/17 00:28:45;;;;;;;36.57;11.47;;;-2.80;99.90;;;;;;2602642;54;20052;31
2024/01/17 00:31:20;;;;;;;30.90;12.50;;;-2.90;99.90;;;;;;2621069;47;20853;31
2024/01/17 00:33:55;;;;;;;34.13;13.23;;;-3.00;99.90;;;;;;2621433;47;21110;31
2024/01/17 00:36:30;;;;;;;;;;;-3.00;99.90;;;;;;2621082;47;20026;31
2024/01/17 00:39:08;;;;;;;34.97;12.05;;;-3.10;99.90;;;;;;2621035;47;20028;31
2024/01/17 00:41:43;;;;;;;74.15;24.70;;;-3.20;99.90;;;;;;2621060;47;20026;31
2024/01/17 00:44:21;;;;;;;88.88;31.40;;;-3.30;99.90;;;;;;2602532;54;20935;31
2024/01/17 00:46:55;;;;;;;59.03;20.95;;;-3.40;99.90;;;;;;2602628;54;20735;31
2024/01/17 00:49:30;;;;;;;54.85;20.85;;;-3.50;99.90;;;;;;2602381;54;20030;31
2024/01/17 00:52:05;;;;;;;50.80;19.55;;;-3.50;99.90;;;;;;2602593;54;20022;31
2024/01/17 00:54:43;;;;;;;38.70;18.15;;;-3.60;99.90;;;;;;2602655;54;20072;31
2024/01/17 00:57:17;;;;;;;59.42;19.02;;;-3.70;99.90;;;;;;2620631;47;20824;31
2024/01/17 00:59:52;;;;;;;40.85;18.70;;;-3.70;99.90;;;;;;2603379;54;20095;31
2024/01/17 01:02:27;;;;;;;49.53;19.17;;;-3.80;99.90;;;;;;2603378;54;20060;31
2024/01/17 01:05:02;;;;;;;38.20;15.75;;;-3.80;99.90;;;;;;2603302;54;20838;31
2024/01/17 01:07:37;;;;;;;41.93;17.23;;;-3.90;99.90;;;;;;2603247;54;20854;31
2024/01/17 01:10:15;;;;;;;41.27;17.67;;;-4.00;99.90;;;;;;2603268;54;20242;31
2024/01/17 01:12:49;;;;;;;50.45;16.85;;;-4.10;99.90;;;;;;2603337;54;20938;31
2024/01/17 01:15:24;;;;;;;38.75;16.17;;;-4.10;99.90;;;;;;2603350;54;20030;31
2024/01/17 01:18:01;;;;;;;45.65;17.98;;;-4.10;99.90;;;;;;2603321;54;20027;31
2024/01/17 01:20:38;;;;;;;41.03;17.90;;;-4.20;99.90;;;;;;2603410;54;20856;31
2024/01/17 01:23:13;;;;;;;39.50;17.65;;;-4.20;99.90;;;;;;2622018;46;20038;31
2024/01/17 01:25:51;;;;;;;46.75;18.92;;;-4.30;99.90;;;;;;2621895;46;20037;31
2024/01/17 01:28:25;;;;;;;50.97;18.50;;;-4.30;99.90;;;;;;2603220;54;20050;31
2024/01/17 01:31:00;;;;;;;49.00;18.33;;;-4.40;99.90;;;;;;2603193;54;20030;31
2024/01/17 01:33:35;;;;;;;41.10;18.20;;;-4.40;99.90;;;;;;2621694;46;20037;31
2024/01/17 01:36:10;;;;;;;42.30;17.50;;;-4.50;99.90;;;;;;2603352;54;20031;31
2024/01/17 01:38:45;;;;;;;48.97;17.17;;;-4.50;99.90;;;;;;2602985;54;20030;31
2024/01/17 01:41:23;;;;;;;42.15;15.27;;;-4.60;99.90;;;;;;2602920;54;20022;31
2024/01/17 01:43:57;;;;;;;38.90;17.53;;;-4.60;99.90;;;;;;2603137;54;20817;31
2024/01/17 01:46:31;;;;;;;42.03;16.48;;;-4.70;99.90;;;;;;2603006;54;20046;31
2024/01/17 01:49:06;;;;;;;37.35;15.55;;;-4.80;99.90;;;;;;2603117;54;20033;31
2024/01/17 01:51:44;;;;;;;36.67;15.80;;;-4.80;99.90;;;;;;2603138;54;20026;31
2024/01/17 01:54:16;;;;;;;39.00;14.75;;;-4.90;99.90;;;;;;2603150;54;20069;31
2024/01/17 01:56:54;;;;;;;38.38;14.23;;;-5.00;99.90;;;;;;2603204;54;20958;31
2024/01/17 01:59:28;;;;;;;33.75;15.18;;;-5.00;99.90;;;;;;2621889;46;20030;31
2024/01/17 02:02:04;;;;;;;33.55;14.20;;;-5.10;99.90;;;;;;2621492;46;20038;31
2024/01/17 02:04:39;;;;;;;32.03;14.27;;;-5.10;99.90;;;;;;2603122;54;20857;31
2024/01/17 02:07:14;;;;;;;33.28;13.80;;;-5.10;99.90;;;;;;2621607;46;20030;31
2024/01/17 02:09:49;;;;;;;36.22;12.63;;;-5.20;99.90;;;;;;2602868;54;20870;31
2024/01/17 02:12:27;;;;;;;37.30;14.13;;;-5.20;99.90;;;;;;2603136;54;20899;31
2024/01/17 02:15:01;;;;;;;35.17;15.18;;;-5.30;99.90;;;;;;2603103;54;20037;31
2024/01/17 02:17:36;;;;;;;39.33;14.13;;;-5.40;99.90;;;;;;2603232;54;20724;31
2024/01/17 02:20:12;;;;;;;31.27;12.70;;;-5.50;99.90;;;;;;2603061;54;20920;31
2024/01/17 02:22:46;;;;;;;36.15;15.20;;;-5.50;99.90;;;;;;2603179;54;20022;31
2024/01/17 02:25:23;;;;;;;31.17;13.05;;;-5.50;99.90;;;;;;2603044;54;20027;31
2024/01/17 02:28:00;;;;;;;30.70;11.93;;;-5.50;99.90;;;;;;2621252;46;20788;31
2024/01/17 02:30:32;;;;;;;31.08;12.57;;;-5.60;99.90;;;;;;2602973;54;20849;31
2024/01/17 02:33:07;;;;;;;25.98;12.45;;;-5.60;99.90;;;;;;2603088;54;20828;31
2024/01/17 02:35:40;;;;;;;34.08;12.90;;;-5.70;99.90;;;;;;2603220;54;22330;31
2024/01/17 02:38:15;;;;;;;31.52;13.30;;;-5.70;99.90;;;;;;2602976;54;20078;31
2024/01/17 02:40:53;;;;;;;30.95;13.60;;;-5.70;99.90;;;;;;2602961;54;20026;31
2024/01/17 02:43:27;;;;;;;29.50;12.88;;;-5.80;99.90;;;;;;2603154;54;20894;31
2024/01/17 02:46:09;;;;;;;40.97;14.77;;;-5.80;99.90;;;;;;2602976;54;20053;31
2024/01/17 02:48:44;;;;;;;32.58;12.40;;;-5.80;99.90;;;;;;2603152;54;20899;31
2024/01/17 02:51:19;;;;;;;32.37;14.43;;;-5.80;99.90;;;;;;2603109;54;20726;31
2024/01/17 02:53:54;;;;;;;34.67;14.18;;;-5.90;99.90;;;;;;2602986;54;20260;31
2024/01/17 02:56:32;;;;;;;30.42;12.48;;;-5.90;99.90;;;;;;2602945;54;20120;31
2024/01/17 02:59:06;;;;;;;32.13;12.97;;;-5.90;99.90;;;;;;2603056;54;20945;31
2024/01/17 03:01:41;;;;;;;38.92;14.35;;;-5.90;99.90;;;;;;2602963;54;20925;31
2024/01/17 03:04:16;;;;;;;31.65;13.40;;;-6.00;99.90;;;;;;2764650;31;20026;31
2024/01/17 03:06:52;;;;;;;40.87;14.70;;;-6.00;99.90;;;;;;2621631;46;20038;31
2024/01/17 03:09:27;;;;;;;32.80;14.40;;;-6.10;99.90;;;;;;2603058;54;20259;31
2024/01/17 03:12:05;;;;;;;30.27;13.70;;;-6.10;99.90;;;;;;2603094;54;20727;31
2024/01/17 03:14:39;;;;;;;31.65;14.45;;;-6.00;99.90;;;;;;2602960;54;20052;31
2024/01/17 03:17:14;;;;;;;33.93;13.70;;;-6.00;99.90;;;;;;2602915;54;20846;31
2024/01/17 03:19:48;;;;;;;39.27;14.43;;;-6.10;99.90;;;;;;2602886;54;21286;31
2024/01/17 03:22:21;;;;;;;32.70;13.97;;;-6.20;99.90;;;;;;2621261;46;22646;31
2024/01/17 03:24:56;;;;;;;34.73;13.83;;;-6.30;99.90;;;;;;2603149;54;21059;31
2024/01/17 03:27:34;;;;;;;37.40;15.25;;;-6.40;99.90;;;;;;2621167;46;20763;31
2024/01/17 03:30:09;;;;;;;41.50;15.35;;;-6.30;99.90;;;;;;2602924;54;20727;31
2024/01/17 03:32:44;;;;;;;46.80;16.70;;;-6.30;99.90;;;;;;2602817;54;20026;31
2024/01/17 03:35:19;;;;;;;45.20;15.00;;;-6.30;99.90;;;;;;2602828;54;20031;31
2024/01/17 03:37:54;;;;;;;34.70;15.05;;;-6.40;99.90;;;;;;2602759;54;20873;31
2024/01/17 03:40:29;;;;;;;37.00;15.75;;;-6.40;99.90;;;;;;2602938;54;20108;31
2024/01/17 03:43:09;;;;;;;35.80;14.70;;;-6.40;99.90;;;;;;2602989;54;20030;31
2024/01/17 03:48:18;;;;;;;43.65;15.50;;;-6.50;99.90;;;;;;2621258;46;20030;31
2024/01/17 03:50:53;;;;;;;28.27;12.47;;;-6.50;99.90;;;;;;2621529;46;20027;31
2024/01/17 03:53:28;;;;;;;40.05;15.98;;;-6.60;99.90;;;;;;2602914;54;20989;31
2024/01/17 03:56:03;;;;;;;35.10;14.68;;;-6.60;99.90;;;;;;2621574;46;20937;31
2024/01/17 03:58:41;;;;;;;35.28;14.40;;;-6.60;99.90;;;;;;2621143;46;20050;31
2024/01/17 04:01:16;;;;;;;45.40;15.60;;;-6.70;99.90;;;;;;2602700;54;20030;31
2024/01/17 04:03:52;;;;;;;43.53;14.40;;;-6.70;99.90;;;;;;2602842;54;20923;31
2024/01/17 04:06:29;;;;;;;30.42;13.00;;;-6.80;99.90;;;;;;2602656;54;20033;31
2024/01/17 04:09:03;;;;;;;34.60;15.30;;;-6.80;99.90;;;;;;2621064;46;20089;31
2024/01/17 04:11:38;;;;;;;33.55;14.40;;;-6.90;99.90;;;;;;2621292;46;20034;31
2024/01/17 04:14:16;;;;;;;35.75;14.80;;;-6.90;99.90;;;;;;2602767;54;20883;31
2024/01/17 04:16:50;;;;;;;37.53;13.07;;;-7.00;99.90;;;;;;2602716;54;20105;31
2024/01/17 04:19:25;;;;;;;34.40;15.23;;;-7.00;99.90;;;;;;2621378;47;20026;31
2024/01/17 04:22:00;;;;;;;35.85;15.60;;;-7.00;99.90;;;;;;2602924;54;20093;31
2024/01/17 04:24:35;;;;;;;35.88;13.73;;;-7.00;99.90;;;;;;2602715;54;20896;31
2024/01/17 04:27:10;;;;;;;35.33;14.88;;;-7.00;99.90;;;;;;2602594;54;20026;31
2024/01/17 04:29:48;;;;;;;35.88;13.65;;;-7.00;99.90;;;;;;2621312;47;20034;31
2024/01/17 04:32:23;;;;;;;42.40;15.07;;;-7.10;99.90;;;;;;2602562;54;20749;31
2024/01/17 04:34:57;;;;;;;34.47;14.60;;;-7.10;99.90;;;;;;2603449;54;20034;31
2024/01/17 04:37:32;;;;;;;37.60;14.10;;;-7.20;99.90;;;;;;2622065;46;20038;31
2024/01/17 04:40:09;;;;;;;44.40;14.60;;;-7.20;99.90;;;;;;2603519;54;20083;31
2024/01/17 04:42:44;;;;;;;35.10;14.93;;;-7.20;99.90;;;;;;2622221;46;20863;31
2024/01/17 04:45:21;;;;;;;43.67;14.90;;;-7.30;99.90;;;;;;2621783;46;20052;31
2024/01/17 04:47:55;;;;;;;38.03;14.63;;;-7.30;99.90;;;;;;2603283;54;20920;31
2024/01/17 04:50:30;;;;;;;39.55;13.63;;;-7.20;99.90;;;;;;2603185;54;20030;31
2024/01/17 04:53:03;;;;;;;32.80;13.93;;;-7.20;99.90;;;;;;2621960;46;22357;31
2024/01/17 04:55:39;;;;;;;43.87;16.07;;;-7.30;99.90;;;;;;2603347;54;20026;31
2024/01/17 04:58:14;;;;;;;32.60;11.80;;;-7.30;99.90;;;;;;2603441;54;20726;31
2024/01/17 05:00:52;;;;;;;33.03;12.55;;;-7.30;99.90;;;;;;2603059;54;20883;31
2024/01/17 05:03:27;;;;;;;28.23;13.10;;;-7.30;99.90;;;;;;2621791;46;20026;31
2024/01/17 05:06:03;;;;;;;30.90;12.40;;;-7.30;99.90;;;;;;2603236;54;20031;31
2024/01/17 05:08:38;;;;;;;36.60;12.40;;;-7.30;99.90;;;;;;2621627;46;20038;31
2024/01/17 05:11:13;;;;;;;37.97;14.30;;;-7.30;99.90;;;;;;2621619;46;20069;31
2024/01/17 05:13:48;;;;;;;34.97;14.63;;;-7.40;99.90;;;;;;2603371;54;20037;31
2024/01/17 05:16:25;;;;;;;44.85;15.20;;;-7.40;99.90;;;;;;2603382;54;20030;31
2024/01/17 05:19:00;;;;;;;36.03;13.67;;;-7.50;99.90;;;;;;2621588;46;20906;31
2024/01/17 05:21:35;;;;;;;30.63;13.23;;;-7.40;99.90;;;;;;2621689;46;20058;31
2024/01/17 05:24:09;;;;;;;38.92;13.77;;;-7.50;99.90;;;;;;2603105;54;20867;31
2024/01/17 05:26:44;;;;;;;32.30;14.00;;;-7.60;99.90;;;;;;2603328;54;20751;31
2024/01/17 05:29:19;;;;;;;33.65;13.15;;;-7.60;99.90;;;;;;2603149;54;20281;31
2024/01/17 05:31:57;;;;;;;29.97;12.47;;;-7.60;99.90;;;;;;2603337;54;20766;31
2024/01/17 05:34:29;;;;;;;30.17;13.85;;;-7.70;99.90;;;;;;2621663;46;22312;31
2024/01/17 05:37:06;;;;;;;34.60;15.40;;;-7.70;99.90;;;;;;2603081;54;20104;31
2024/01/17 05:39:40;;;;;;;37.38;15.07;;;-7.70;99.90;;;;;;2603169;54;20033;31
2024/01/17 05:42:15;;;;;;;41.78;13.52;;;-7.70;99.90;;;;;;2621768;46;20862;31
2024/01/17 05:44:53;;;;;;;51.28;17.52;;;-7.80;99.90;;;;;;2602651;54;20085;31
2024/01/17 05:47:27;;;;;;;40.35;15.48;;;-7.80;99.90;;;;;;2603359;54;20046;31
2024/01/17 05:50:08;;;;;;;33.42;15.13;;;-7.90;99.90;;;;;;2603027;54;21470;31
2024/01/17 05:52:46;;;;;;;36.90;14.55;;;-7.90;99.90;;;;;;2621585;46;20034;31
2024/01/17 05:55:21;;;;;;;36.47;15.02;;;-8.00;99.90;;;;;;2603239;54;20840;31
2024/01/17 05:57:56;;;;;;;37.30;15.35;;;-8.00;99.90;;;;;;2621916;46;20053;31
2024/01/17 06:00:31;;;;;;;27.05;10.45;;;-8.00;99.90;;;;;;2603211;54;20030;31
2024/01/17 06:03:07;;;;;;;31.05;14.50;;;-8.00;99.90;;;;;;2603111;54;20031;31
2024/01/17 06:05:45;;;;;;;38.35;15.95;;;-8.10;99.90;;;;;;2617263;46;20986;31
2024/01/17 06:08:19;;;;;;;37.53;14.85;;;-8.10;99.90;;;;;;2602993;54;20896;31
2024/01/17 06:10:54;;;;;;;39.25;15.00;;;-8.10;99.90;;;;;;2603149;54;20884;31
2024/01/17 06:13:29;;;;;;;40.30;15.77;;;-8.10;99.90;;;;;;2603277;54;20860;31
2024/01/17 06:16:04;;;;;;;37.67;14.55;;;-8.10;99.90;;;;;;2603211;54;20880;31
2024/01/17 06:18:39;;;;;;;38.88;15.35;;;-8.20;99.90;;;;;;2603202;54;20782;31
2024/01/17 06:21:17;;;;;;;43.35;17.77;;;-8.20;99.90;;;;;;2603156;54;20888;31
2024/01/17 06:23:51;;;;;;;42.78;16.52;;;-8.20;99.90;;;;;;2602942;54;20030;31
2024/01/17 06:26:26;;;;;;;33.55;15.13;;;-8.20;99.90;;;;;;2602817;54;20901;31
2024/01/17 06:29:01;;;;;;;34.00;15.93;;;-8.20;99.90;;;;;;2603054;54;20033;31
2024/01/17 06:31:33;;;;;;;37.77;15.27;;;-8.20;99.90;;;;;;2621299;46;21132;31
2024/01/17 06:34:08;;;;;;;33.05;15.45;;;-8.20;99.90;;;;;;2621495;46;20871;31
2024/01/17 06:36:46;;;;;;;36.40;15.55;;;-8.30;99.90;;;;;;2621304;46;20026;31
2024/01/17 06:39:20;;;;;;;40.30;16.50;;;-8.30;99.90;;;;;;2602915;54;20083;31
2024/01/17 06:41:55;;;;;;;38.25;16.60;;;-8.30;99.90;;;;;;2602887;54;20911;31
2024/01/17 06:44:30;;;;;;;44.40;16.80;;;-8.30;99.90;;;;;;2602885;54;20890;31
2024/01/17 06:47:06;;;;;;;44.00;17.35;;;-8.30;99.90;;;;;;2603052;54;20799;31
2024/01/17 06:49:41;;;;;;;42.95;16.00;;;-8.30;99.90;;;;;;2602829;54;20027;31
2024/01/17 06:52:19;;;;;;;39.58;15.85;;;-8.30;99.90;;;;;;2621577;46;20066;31
2024/01/17 06:54:51;;;;;;;37.45;16.52;;;-8.30;99.90;;;;;;2602948;54;21139;31
2024/01/17 06:57:26;;;;;;;50.10;17.83;;;-8.30;99.90;;;;;;2602878;54;20813;31
2024/01/17 07:00:02;;;;;;;40.23;15.63;;;-8.30;99.90;;;;;;2602925;54;20258;31
2024/01/17 07:02:36;;;;;;;;;;;-8.30;99.90;;;;;;2603023;54;21086;31
2024/01/17 07:05:12;;;;;;;45.08;15.73;;;-8.20;99.90;;;;;;2602998;54;20801;31
2024/01/17 07:07:49;;;;;;;34.00;15.33;;;-8.20;99.90;;;;;;2621278;46;20084;31
2024/01/17 07:10:25;;;;;;;40.47;16.05;;;-8.20;99.90;;;;;;2621200;46;20030;31
2024/01/17 07:12:59;;;;;;;50.65;18.58;;;-8.10;99.90;;;;;;2621606;46;20887;31
2024/01/17 07:15:34;;;;;;;34.40;16.85;;;-8.10;99.90;;;;;;2621196;46;20030;31
2024/01/17 07:18:09;;;;;;;54.30;19.00;;;-8.10;99.90;;;;;;2602952;54;20030;31
2024/01/17 07:20:44;;;;;;;47.23;18.43;;;-8.10;99.90;;;;;;2602776;54;20112;31
2024/01/17 07:23:22;;;;;;;46.60;18.67;;;-8.00;99.90;;;;;;2602750;54;20270;31
2024/01/17 07:25:56;;;;;;;43.38;19.17;;;-8.00;99.90;;;;;;2621327;46;21112;31
2024/01/17 07:28:31;;;;;;;43.85;18.40;;;-7.90;99.90;;;;;;2621264;46;20096;31
2024/01/17 07:31:06;;;;;;;41.80;18.50;;;-7.80;99.90;;;;;;2602737;54;20032;31
2024/01/17 07:33:41;;;;;;;46.30;19.52;;;-7.70;99.90;;;;;;2602908;54;20074;31
2024/01/17 07:36:16;;;;;;;43.47;19.10;;;-7.50;99.90;;;;;;2603153;54;20057;31
2024/01/17 07:38:54;;;;;;;45.60;17.40;;;-7.10;99.90;;;;;;2621027;46;20307;31
2024/01/17 07:41:29;;;;;;;43.75;18.20;;;-6.60;99.90;;;;;;2621321;46;20068;31
2024/01/17 07:44:04;;;;;;;46.50;18.45;;;-6.10;99.90;;;;;;2602956;54;20899;31
2024/01/17 07:46:39;;;;;;;48.00;18.63;;;-5.70;99.90;;;;;;2602841;54;20947;31
2024/01/17 07:49:14;;;;;;;38.72;16.90;;;-5.40;99.50;;;;;;2602767;54;20037;31
2024/01/17 07:51:49;;;;;;;46.30;17.40;;;-5.00;99.90;;;;;;2602239;54;20649;31
2024/01/17 07:54:25;;;;;;;42.30;18.55;;;-4.80;96.90;;;;;;2621212;46;22373;31
2024/01/17 07:56:59;;;;;;;48.45;17.88;;;-4.60;96.10;;;;;;2602864;54;20034;31
2024/01/17 07:59:34;;;;;;;55.90;25.15;;;-4.40;95.20;;;;;;2621401;46;20042;31
2024/01/17 08:02:10;;;;;;;48.63;19.30;;;-4.10;93.30;;;;;;2602683;54;20022;31
2024/01/17 08:04:43;;;;;;;50.85;19.35;;;-3.80;94.80;;;;;;2602819;54;20026;31
2024/01/17 08:07:20;;;;;;;48.10;20.70;;;-3.50;99.90;;;;;;2602665;54;21249;31
2024/01/17 08:09:59;;;;;;;50.70;19.33;;;-3.20;99.90;;;;;;2602679;54;20026;31
2024/01/17 08:12:37;;;;;;;47.70;20.08;;;-3.20;99.90;;;;;;2601942;54;20042;31
2024/01/17 08:15:12;;;;;;;42.43;19.03;;;-3.10;99.90;;;;;;2602904;54;20747;31
2024/01/17 08:17:47;;;;;;;43.67;18.10;;;-3.00;99.90;;;;;;2602724;54;20890;31
2024/01/17 08:20:39;;;;;;;49.70;19.85;;;-3.00;99.90;;;;;;2602646;54;20031;31
2024/01/17 08:23:17;;;;;;;42.70;19.55;;;-2.80;27.60;;;;;;2602466;54;20139;31
2024/01/17 08:25:55;;;;;;;40.75;19.50;;;-2.80;99.90;;;;;;2621160;47;20030;31
2024/01/17 08:28:29;;;;;;;44.33;18.88;;;-2.70;99.90;;;;;;2602635;54;20890;31
2024/01/17 08:31:05;;;;;;;46.10;20.02;;;-2.80;99.90;;;;;;2602653;54;20026;31
2024/01/17 08:33:39;;;;;;;43.55;18.30;;;-3.00;99.90;;;;;;2621048;47;20033;31
2024/01/17 08:36:14;;;;;;;50.45;18.35;;;-3.30;99.90;;;;;;2602555;54;20049;31
2024/01/17 08:38:49;;;;;;;51.13;19.33;;;-3.50;16.50;;;;;;2602614;54;20860;31
2024/01/17 08:41:25;;;;;;;39.90;18.70;;;-3.60;30.00;;;;;;2621000;47;22628;31
2024/01/17 08:43:59;;;;;;;104.50;52.60;;;-3.60;39.50;;;;;;2602674;54;20022;31
2024/01/17 08:46:43;;;;;;;76.82;40.08;;;-3.40;71.40;;;;;;2602658;54;20723;31
2024/01/17 08:49:20;;;;;;;136.48;57.95;;;-3.10;54.40;;;;;;2602583;54;21004;31
2024/01/17 08:51:55;;;;;;;112.05;57.05;;;-2.80;61.10;;;;;;2602551;54;20030;31
2024/01/17 08:54:30;;;;;;;69.60;37.65;;;-2.60;99.90;;;;;;2620911;47;21137;31
2024/01/17 08:57:08;;;;;;;55.00;25.95;;;-2.10;92.80;;;;;;2602711;54;20033;31
2024/01/17 08:59:43;;;;;;;50.15;22.63;;;-1.90;99.90;;;;;;2602526;54;20877;31
2024/01/17 09:02:18;;;;;;;57.83;23.35;;;-1.60;99.90;;;;;;2620981;47;20049;31
2024/01/17 09:04:53;;;;;;;53.08;21.77;;;-1.30;99.90;;;;;;2602656;54;20826;31
2024/01/17 09:07:28;;;;;;;45.85;20.15;;;-1.10;99.90;;;;;;2602538;54;20916;31
2024/01/17 09:10:07;;;;;;;42.77;19.87;;;-0.90;99.90;;;;;;2602739;54;20854;31
2024/01/17 09:12:44;;;;;;;40.60;19.40;;;-0.70;99.90;;;;;;2620978;47;21113;31
2024/01/17 09:15:19;;;;;;;39.10;18.45;;;-0.50;99.90;;;;;;2602608;54;20144;31
2024/01/17 09:17:54;;;;;;;43.40;19.55;;;-0.60;99.90;;;;;;2602381;54;20043;31
2024/01/17 09:20:29;;;;;;;41.50;17.50;;;-0.60;99.90;;;;;;2603260;54;20101;31
2024/01/17 09:23:04;;;;;;;37.38;17.05;;;-0.50;99.90;;;;;;2603452;54;20838;31
2024/01/17 09:25:39;;;;;;;33.33;14.50;;;-0.60;99.90;;;;;;2603228;54;20850;31
2024/01/17 09:28:17;;;;;;;42.15;16.77;;;-0.80;99.90;;;;;;2621718;46;20077;31
2024/01/17 09:30:52;;;;;;;30.00;15.65;;;-0.80;99.90;;;;;;2603037;54;20085;31
2024/01/17 09:33:30;;;;;;;37.13;17.00;;;-0.80;99.90;;;;;;2603303;54;20026;31
2024/01/17 09:36:06;;;;;;;39.22;17.88;;;-0.90;99.90;;;;;;2621505;46;20753;31
2024/01/17 09:38:40;;;;;;;;;;;-0.80;99.90;;;;;;2622104;46;20031;31
2024/01/17 09:41:19;;;;;;;33.40;15.82;;;-0.60;99.90;;;;;;2603114;54;19957;31
2024/01/17 09:44:00;;;;;;;34.90;16.40;;;-0.40;99.90;;;;;;2603107;54;20027;31
2024/01/17 10:07:45;;;;;;;30.80;14.52;;;-0.50;99.90;;;;;;2927192;46;20022;31
2024/01/17 10:10:28;;;;;;;35.57;15.87;;;-0.40;99.90;;;;;;2603095;54;20026;31
2024/01/17 10:13:06;;;;;;;35.55;14.45;;;-0.30;99.90;;;;;;2621328;46;22360;31
2024/01/17 10:15:41;;;;;;;33.15;17.23;;;-0.30;99.90;;;;;;2603205;54;20918;31
2024/01/17 10:18:18;;;;;;;29.55;15.25;;;-0.30;99.90;;;;;;2603025;54;20026;31
2024/01/17 10:20:55;;;;;;;29.43;13.60;;;-0.30;99.90;;;;;;2603030;54;20072;31
2024/01/17 10:23:34;;;;;;;28.00;13.80;;;-0.40;99.90;;;;;;2621602;46;20268;31
2024/01/17 10:26:11;;;;;;;31.75;15.25;;;-0.50;99.90;;;;;;2603223;54;20051;31
2024/01/17 10:28:50;;;;;;;47.25;17.80;;;-0.50;99.90;;;;;;2603023;54;21007;31
2024/01/17 10:34:02;;;;;;;30.17;15.57;;;-0.60;99.90;;;;;;2602937;54;20848;31
2024/01/17 10:36:42;;;;;;;25.48;13.80;;;-0.60;99.90;;;;;;2603019;54;20954;31
2024/01/17 10:42:05;;;;;;;30.95;14.45;;;-0.80;99.90;;;;;;2603252;54;20235;31
2024/01/17 10:44:40;;;;;;;29.88;14.75;;;-0.90;99.90;;;;;;2603812;46;20099;31
2024/01/17 10:47:18;;;;;;;31.25;14.55;;;-0.90;99.90;;;;;;2602976;54;20731;31
2024/01/17 10:49:52;;;;;;;29.65;14.10;;;-0.90;99.90;;;;;;2603080;54;21056;31
2024/01/17 10:52:25;;;;;;;22.60;12.15;;;-0.90;99.90;;;;;;2621229;46;22343;31
2024/01/17 10:55:10;;;;;;;30.30;12.30;;;-1.00;99.90;;;;;;2603042;54;20931;31
2024/01/17 10:57:48;;;;;;;33.33;13.60;;;-1.00;99.90;;;;;;2621745;46;21076;31
2024/01/17 11:00:31;;;;;;;34.38;12.98;;;-1.00;99.90;;;;;;2602971;54;20262;31
2024/01/17 11:03:09;;;;;;;32.63;14.05;;;-1.20;99.90;;;;;;2602945;54;20031;31
2024/01/17 11:05:48;;;;;;;29.42;13.88;;;-1.20;99.90;;;;;;2603058;54;20871;31
2024/01/17 11:08:22;;;;;;;27.30;11.95;;;-1.20;99.90;;;;;;2602884;54;20030;31
2024/01/17 11:10:57;;;;;;;29.65;13.77;;;-1.20;99.90;;;;;;2621178;46;20923;31
2024/01/17 11:13:35;;;;;;;36.83;13.82;;;-1.30;99.90;;;;;;2602803;54;20037;31
2024/01/17 11:16:11;;;;;;;31.10;15.35;;;-1.50;99.90;;;;;;2602901;54;20857;31
2024/01/17 11:18:46;;;;;;;35.17;15.73;;;-1.50;99.90;;;;;;2603074;54;20037;31
2024/01/17 11:21:20;;;;;;;32.40;14.90;;;-1.60;99.90;;;;;;2621463;46;20052;31
2024/01/17 11:23:59;;;;;;;33.10;14.63;;;-1.70;99.90;;;;;;2603041;54;20866;31
2024/01/17 11:26:36;;;;;;;33.28;14.23;;;-1.80;99.90;;;;;;2602958;54;20890;31
2024/01/17 11:29:18;;;;;;;31.95;15.02;;;-1.80;99.90;;;;;;2602762;54;20897;31
2024/01/17 11:31:55;;;;;;;42.00;16.95;;;-1.90;81.20;;;;;;2602768;54;20026;31
2024/01/17 11:34:30;;;;;;;29.05;13.75;;;-1.90;84.20;;;;;;2602975;54;20038;31
2024/01/17 11:37:05;;;;;;;33.03;16.20;;;-1.90;82.10;;;;;;2603062;54;20921;31
2024/01/17 11:39:44;;;;;;;34.47;15.27;;;-1.80;86.80;;;;;;2602894;54;21109;31
2024/01/17 11:42:19;;;;;;;32.73;15.30;;;-1.80;86.80;;;;;;2602879;54;20905;31
2024/01/17 11:44:58;;;;;;;40.10;16.88;;;-1.80;84.90;;;;;;2602586;54;20037;31
2024/01/17 11:47:54;;;;;;;39.70;16.55;;;-1.70;99.90;;;;;;2621285;46;20085;31
2024/01/17 11:50:37;;;;;;;48.55;17.35;;;-1.70;99.90;;;;;;2621228;46;20042;31
2024/01/17 11:56:25;;;;;;;52.45;20.48;;;-1.50;99.90;;;;;;2602584;54;20941;31
2024/01/17 12:04:44;;;;;;;49.30;18.55;;;-1.30;99.90;;;;;;2602875;54;20081;31
2024/01/17 12:07:19;;;;;;;43.38;17.90;;;-1.20;99.90;;;;;;2602844;54;20037;31
2024/01/17 12:09:54;;;;;;;34.63;14.90;;;-1.20;99.90;;;;;;2602821;54;20038;31
2024/01/17 12:12:29;;;;;;;40.83;15.65;;;-1.20;99.90;;;;;;2621071;46;20077;31
2024/01/17 12:15:09;;;;;;;39.03;16.05;;;-1.20;99.90;;;;;;2602708;54;20891;31
2024/01/17 12:17:49;;;;;;;41.03;16.83;;;-1.20;99.90;;;;;;2602680;54;20779;31
2024/01/17 12:23:06;;;;;;;31.00;14.18;;;-1.20;99.90;;;;;;2602705;54;20863;31
2024/01/17 12:25:48;;;;;;;29.58;15.63;;;-1.20;99.90;;;;;;2602848;54;20026;31
2024/01/17 12:34:38;;;;;;;43.40;17.25;;;-1.10;99.90;;;;;;2601850;54;20933;31
2024/01/17 12:40:17;;;;;;;31.50;16.10;;;-1.00;99.90;;;;;;2602012;54;20027;31
2024/01/17 12:43:00;;;;;;;36.85;17.08;;;-1.00;99.90;;;;;;2602516;54;20890;31
2024/01/17 12:57:46;;;;;;;46.85;20.30;;;-1.00;99.90;;;;;;2610606;54;20938;31
2024/01/17 13:00:27;;;;;;;54.47;22.95;;;-1.00;99.90;;;;;;2603492;54;20723;31
2024/01/17 13:36:28;;;;;;;44.30;19.35;;;-0.80;99.90;;;;;;2612192;54;20023;31
2024/01/17 13:41:54;;;;;;;33.83;16.75;;;-0.80;99.90;;;;;;2621954;46;19934;31
2024/01/17 13:56:13;;;;;;;61.00;25.33;;;-0.80;99.90;;;;;;2602814;54;20798;31
2024/01/17 14:01:49;;;;;;;35.92;16.60;;;-0.80;99.90;;;;;;2603396;54;20081;31
2024/01/17 14:21:22;;;;;;;36.63;16.27;;;-0.80;99.90;;;;;;2603122;54;20738;31
2024/01/17 14:24:03;;;;;;;36.08;15.50;;;-0.80;99.90;;;;;;2603354;54;20850;31
2024/01/17 14:26:43;;;;;;;38.90;16.80;;;-0.80;99.90;;;;;;2621383;46;20045;31
2024/01/17 14:32:02;;;;;;;34.28;16.40;;;-0.90;99.90;;;;;;2602990;54;20862;31
2024/01/17 14:34:40;;;;;;;33.90;14.77;;;-0.90;99.90;;;;;;2602953;54;20027;31
2024/01/17 14:37:16;;;;;;;37.50;17.63;;;-0.90;99.90;;;;;;2603004;54;20099;31
2024/01/17 14:39:57;;;;;;;36.15;16.50;;;-0.90;99.90;;;;;;2603143;54;20884;31
2024/01/17 14:45:35;;;;;;;38.22;17.85;;;-0.90;99.90;;;;;;2603096;54;20026;31
2024/01/17 14:48:11;;;;;;;30.10;15.10;;;-0.90;99.90;;;;;;2621564;46;20053;31
2024/01/17 15:06:03;;;;;;;37.30;16.67;;;-0.90;99.90;;;;;;2601991;54;20038;31
2024/01/17 15:26:47;;;;;;;29.60;13.60;;;-0.80;99.90;;;;;;2603088;54;20081;31
2024/01/17 15:29:31;;;;;;;35.30;16.57;;;-0.80;99.90;;;;;;2603086;54;20893;31
2024/01/17 15:32:12;;;;;;;35.27;16.43;;;-0.80;99.90;;;;;;2602899;54;20026;31
2024/01/17 15:34:52;;;;;;;32.63;15.07;;;-0.80;99.90;;;;;;2602830;54;20030;31
2024/01/17 15:43:20;;;;;;;33.85;16.60;;;-0.80;99.90;;;;;;2621585;46;20031;31
2024/01/17 15:57:15;;;;;;;37.92;17.90;;;-0.70;99.90;;;;;;2602965;54;20834;31
2024/01/17 16:18:36;;;;;;;34.33;16.37;;;-0.50;99.90;;;;;;2601990;54;20933;31
2024/01/17 16:21:22;;;;;;;27.23;13.60;;;-0.50;99.90;;;;;;2621421;47;20297;31
2024/01/17 16:24:10;;;;;;;38.25;16.10;;;-0.50;99.90;;;;;;2602978;54;20030;31
2024/01/17 16:29:55;;;;;;;33.55;16.70;;;-0.40;99.90;;;;;;2602981;54;20886;31
2024/01/17 16:41:52;;;;;;;33.15;14.88;;;-0.20;99.90;;;;;;2603309;54;20027;31
2024/01/17 16:47:20;;;;;;;34.08;14.95;;;-0.20;99.90;;;;;;2622118;46;20112;31
2024/01/17 16:49:59;;;;;;;33.38;14.90;;;-0.20;99.90;;;;;;2603661;54;22425;31
2024/01/17 16:52:37;;;;;;;31.98;14.60;;;-0.10;99.90;;;;;;2603400;54;22493;31
2024/01/17 16:55:11;;;;;;;31.30;15.00;;;-0.20;99.90;;;;;;2603534;54;20034;31
2024/01/17 16:57:49;;;;;;;35.90;15.90;;;-0.20;99.90;;;;;;2603481;54;20757;31
2024/01/17 17:00:24;;;;;;;34.53;15.70;;;-0.20;99.90;;;;;;2621891;46;20026;31
2024/01/17 17:03:03;;;;;;;41.33;18.20;;;-0.10;99.90;;;;;;2603730;54;20031;31